createdAt,value
2018-12-04T00:01:40.049Z,100117.80
2018-12-04T00:04:06.087Z,100128.20
2018-12-04T00:06:32.137Z,100140.59
2018-12-04T00:08:58.099Z,100151.14
2018-12-04T00:11:24.071Z,100156.07
2018-12-04T00:13:50.122Z,100160.88
2018-12-04T00:16:16.075Z,100172.09
2018-12-04T00:18:42.080Z,100178.50
2018-12-04T00:21:08.043Z,100193.20
2018-12-04T00:23:33.954Z,100204.26
2018-12-04T00:25:59.919Z,100215.47
2018-12-04T00:28:25.906Z,100225.20
2018-12-04T00:30:51.867Z,100239.22
2018-12-04T00:33:17.828Z,100247.14
2018-12-04T00:35:43.800Z,100248.28
2018-12-04T00:38:09.809Z,100259.34
2018-12-04T00:40:35.756Z,100275.17
2018-12-04T00:43:01.702Z,100283.91
2018-12-04T00:45:27.655Z,100305.03
2018-12-04T00:47:53.607Z,100308.98
2018-12-04T00:50:19.565Z,100314.27
2018-12-04T00:52:45.523Z,100318.72
2018-12-04T00:55:11.476Z,100326.47
2018-12-04T00:57:37.427Z,100333.38
2018-12-04T01:00:03.437Z,100341.16
2018-12-04T01:02:29.404Z,100353.17
2018-12-04T01:04:55.362Z,100358.45
2018-12-04T01:07:21.434Z,100370.66
2018-12-04T01:09:47.580Z,100372.97
2018-12-04T01:12:13.545Z,100377.42
2018-12-04T01:14:39.502Z,100396.41
2018-12-04T01:17:05.494Z,100395.08
2018-12-04T01:22:03.959Z,100413.70
2018-12-04T01:24:29.946Z,100417.16
2018-12-04T01:26:55.897Z,100433.49
2018-12-04T01:29:21.857Z,100435.63
2018-12-04T01:31:47.838Z,100432.67
2018-12-04T01:34:13.825Z,100430.85
2018-12-04T01:36:40.846Z,100425.58
2018-12-04T01:39:06.795Z,100422.11
2018-12-04T01:41:33.666Z,100433.49
2018-12-04T01:43:59.653Z,100454.92
2018-12-04T01:46:25.594Z,100466.80
2018-12-04T01:48:51.552Z,100467.80
2018-12-04T01:51:17.532Z,100479.18
2018-12-04T01:53:43.470Z,100478.85
2018-12-04T01:56:09.442Z,100494.33
2018-12-04T01:58:35.415Z,100485.09
2018-12-04T02:01:01.438Z,100491.37
2018-12-04T02:03:27.397Z,100491.19
2018-12-04T02:05:53.359Z,100503.38
2018-12-04T02:08:19.339Z,100510.80
2018-12-04T02:10:45.277Z,100523.18
2018-12-04T02:13:11.265Z,100526.64
2018-12-04T02:15:37.210Z,100531.09
2018-12-04T02:18:03.245Z,100534.09
2018-12-04T02:20:29.205Z,100540.19
2018-12-04T02:22:55.237Z,100544.48
2018-12-04T02:25:21.198Z,100548.30
2018-12-04T02:27:47.177Z,100550.11
2018-12-04T02:30:13.149Z,100554.89
2018-12-04T02:32:39.172Z,100554.53
2018-12-04T02:35:05.229Z,100559.81
2018-12-04T02:37:31.185Z,100561.98
2018-12-04T02:39:57.153Z,100566.41
2018-12-04T02:42:23.104Z,100579.78
2018-12-04T02:44:49.252Z,100576.13
2018-12-04T02:47:15.211Z,100576.95
2018-12-04T02:49:41.195Z,100585.19
2018-12-04T02:52:07.144Z,100593.61
2018-12-04T02:54:33.114Z,100604.35
2018-12-04T02:56:59.087Z,100603.86
2018-12-04T02:59:25.051Z,100611.64
2018-12-04T03:01:51.031Z,100608.50
2018-12-04T03:04:16.971Z,100610.81
2018-12-04T03:06:42.972Z,100615.59
2018-12-04T03:09:08.971Z,100623.52
2018-12-04T03:11:34.946Z,100626.98
2018-12-04T03:14:00.908Z,100625.33
2018-12-04T03:16:26.877Z,100627.33
2018-12-04T03:18:52.824Z,100643.83
2018-12-04T03:21:18.785Z,100649.11
2018-12-04T03:23:44.781Z,100657.37
2018-12-04T03:26:10.707Z,100660.98
2018-12-04T03:28:36.682Z,100665.30
2018-12-04T03:31:02.635Z,100668.77
2018-12-04T03:33:28.580Z,100672.22
2018-12-04T03:35:54.532Z,100673.55
2018-12-04T03:38:20.583Z,100679.19
2018-12-04T03:40:46.581Z,100682.78
2018-12-04T03:43:12.565Z,100688.42
2018-12-04T03:45:38.539Z,100685.42
2018-12-04T03:48:04.486Z,100691.06
2018-12-04T03:50:30.509Z,100699.80
2018-12-04T03:52:56.467Z,100703.59
2018-12-04T03:55:22.473Z,100707.23
2018-12-04T03:57:48.426Z,100707.86
2018-12-04T04:00:14.415Z,100707.36
2018-12-04T04:02:40.438Z,100710.99
2018-12-04T04:05:06.382Z,100719.73
2018-12-04T04:07:32.342Z,100721.75
2018-12-04T04:09:58.309Z,100728.67
2018-12-04T04:12:24.276Z,100722.92
2018-12-04T04:14:50.235Z,100728.34
2018-12-04T04:17:16.325Z,100727.02
2018-12-04T04:19:42.290Z,100730.98
2018-12-04T04:22:08.380Z,100744.52
2018-12-04T04:24:34.334Z,100744.18
2018-12-04T04:27:00.314Z,100751.97
2018-12-04T04:29:26.274Z,100758.07
2018-12-04T04:31:52.240Z,100765.50
2018-12-04T04:34:18.182Z,100773.28
2018-12-04T04:36:44.226Z,100772.92
2018-12-04T04:39:10.237Z,100775.56
2018-12-04T04:41:36.186Z,100785.63
2018-12-04T04:44:02.139Z,100789.58
2018-12-04T04:46:28.183Z,100789.75
2018-12-04T04:48:54.143Z,100794.83
2018-12-04T04:51:20.088Z,100786.42
2018-12-04T04:53:46.054Z,100797.31
2018-12-04T04:56:12.059Z,100809.55
2018-12-04T04:58:38.149Z,100822.12
2018-12-04T05:01:04.235Z,100822.38
2018-12-04T05:03:30.739Z,100811.69
2018-12-04T05:05:56.705Z,100810.23
2018-12-04T05:08:22.663Z,100815.02
2018-12-04T05:10:48.645Z,100821.75
2018-12-04T05:13:14.587Z,100823.44
2018-12-04T05:15:40.536Z,100830.99
2018-12-04T05:18:06.497Z,100842.88
2018-12-04T05:20:32.449Z,100849.44
2018-12-04T05:22:58.419Z,100859.02
2018-12-04T05:25:24.374Z,100864.00
2018-12-04T05:27:50.439Z,100861.36
2018-12-04T05:30:16.399Z,100864.35
2018-12-04T05:32:42.376Z,100869.63
2018-12-04T05:35:08.350Z,100878.88
2018-12-04T05:37:34.342Z,100883.46
2018-12-04T05:40:00.314Z,100894.35
2018-12-04T05:42:26.269Z,100890.75
2018-12-04T05:44:52.238Z,100884.98
2018-12-04T05:47:18.198Z,100897.81
2018-12-04T05:49:44.181Z,100899.63
2018-12-04T05:52:10.130Z,100909.36
2018-12-04T05:54:36.087Z,100918.61
2018-12-04T05:57:03.111Z,100922.37
2018-12-04T05:59:29.069Z,100931.61
2018-12-04T06:01:55.050Z,100942.50
2018-12-04T06:04:21.019Z,100944.67
2018-12-04T06:06:47.063Z,100947.64
2018-12-04T06:09:13.008Z,100954.73
2018-12-04T06:11:39.002Z,100957.38
2018-12-04T06:14:04.998Z,100968.07
2018-12-04T06:16:30.965Z,100976.35
2018-12-04T06:18:56.917Z,100982.09
2018-12-04T06:21:22.899Z,100997.11
2018-12-04T06:23:48.835Z,100998.09
2018-12-04T06:26:14.797Z,101008.16
2018-12-04T06:28:40.771Z,101011.99
2018-12-04T06:31:06.722Z,101016.08
2018-12-04T06:33:32.661Z,101026.02
2018-12-04T06:35:58.637Z,101031.92
2018-12-04T06:38:24.591Z,101033.57
2018-12-04T06:40:50.542Z,101045.95
2018-12-04T06:43:16.496Z,101047.76
2018-12-04T06:45:42.481Z,101049.08
2018-12-04T06:48:08.446Z,101054.36
2018-12-04T06:50:34.421Z,101070.69
2018-12-04T06:53:00.377Z,101072.02
2018-12-04T06:55:26.467Z,101081.37
2018-12-04T06:57:52.437Z,101084.02
2018-12-04T07:00:18.433Z,101087.98
2018-12-04T07:02:44.379Z,101092.55
2018-12-04T07:05:10.327Z,101098.33
2018-12-04T07:07:36.305Z,101104.44
2018-12-04T07:10:02.283Z,101104.10
2018-12-04T07:12:28.254Z,101103.97
2018-12-04T07:14:54.205Z,101110.08
2018-12-04T07:17:20.159Z,101123.28
2018-12-04T07:19:46.116Z,101127.58
2018-12-04T07:22:12.070Z,101137.31
2018-12-04T07:24:38.018Z,101134.80
2018-12-04T07:27:03.982Z,101141.39
2018-12-04T07:29:29.932Z,101141.27
2018-12-04T07:31:55.894Z,101151.13
2018-12-04T07:34:21.903Z,101161.56
2018-12-04T07:36:47.926Z,101162.87
2018-12-04T07:39:13.958Z,101162.05
2018-12-04T07:41:39.908Z,101166.02
2018-12-04T07:44:05.867Z,101172.12
2018-12-04T07:46:31.867Z,101185.32
2018-12-04T07:48:57.829Z,101177.03
2018-12-04T07:51:23.819Z,101183.30
2018-12-04T07:53:49.782Z,101195.52
2018-12-04T07:56:15.734Z,101214.64
2018-12-04T07:58:41.693Z,101217.61
2018-12-04T08:01:07.673Z,101224.91
2018-12-04T08:03:33.695Z,101227.89
2018-12-04T08:05:59.638Z,101227.89
2018-12-04T08:08:25.626Z,101231.85
2018-12-04T08:10:51.619Z,101238.11
2018-12-04T08:13:17.615Z,101245.76
2018-12-04T08:15:43.557Z,101243.80
2018-12-04T08:18:09.527Z,101263.23
2018-12-04T08:20:35.490Z,101260.83
2018-12-04T08:23:01.668Z,101275.35
2018-12-04T08:25:27.702Z,101282.16
2018-12-04T08:27:53.666Z,101283.00
2018-12-04T08:30:19.639Z,101291.63
2018-12-04T08:32:45.778Z,101298.07
2018-12-04T08:35:11.857Z,101290.64
2018-12-04T08:37:37.825Z,101292.30
2018-12-04T08:40:03.766Z,101298.07
2018-12-04T08:42:29.722Z,101301.69
2018-12-04T08:44:55.708Z,101298.00
2018-12-04T08:47:21.670Z,101307.09
2018-12-04T08:49:47.663Z,101318.97
2018-12-04T08:52:13.617Z,101321.34
2018-12-04T08:54:39.578Z,101328.80
2018-12-04T08:57:05.785Z,101341.63
2018-12-04T08:59:31.738Z,101351.23
2018-12-04T09:01:57.725Z,101349.92
2018-12-04T09:04:23.674Z,101356.52
2018-12-04T09:06:49.746Z,101364.07
2018-12-04T09:09:15.727Z,101370.83
2018-12-04T09:11:41.693Z,101378.59
2018-12-04T09:14:07.652Z,101383.53
2018-12-04T09:16:33.610Z,101389.30
2018-12-04T09:18:59.626Z,101394.09
2018-12-04T09:21:25.759Z,101405.48
2018-12-04T09:23:51.909Z,101412.91
2018-12-04T09:26:18.049Z,101413.75
2018-12-04T09:28:44.082Z,101420.34
2018-12-04T09:31:10.127Z,101427.09
2018-12-04T09:33:36.176Z,101423.14
2018-12-04T09:36:02.190Z,101434.53
2018-12-04T09:38:28.159Z,101437.51
2018-12-04T09:40:54.113Z,101444.11
2018-12-04T09:43:20.094Z,101450.25
2018-12-04T09:45:46.059Z,101455.98
2018-12-04T09:48:12.014Z,101462.12
2018-12-04T09:50:37.968Z,101457.31
2018-12-04T09:53:03.918Z,101459.61
2018-12-04T09:55:30.060Z,101463.08
2018-12-04T09:57:56.008Z,101463.08
2018-12-04T10:00:22.022Z,101466.21
2018-12-04T10:02:47.990Z,101468.14
2018-12-04T10:05:13.930Z,101479.19
2018-12-04T10:07:39.886Z,101480.84
2018-12-04T10:10:05.874Z,101485.19
2018-12-04T10:12:31.812Z,101495.59
2018-12-04T10:14:57.787Z,101494.42
2018-12-04T10:17:23.761Z,101492.61
2018-12-04T10:19:49.771Z,101493.59
2018-12-04T10:22:15.754Z,101492.27
2018-12-04T10:24:41.699Z,101497.18
2018-12-04T10:27:07.673Z,101505.09
2018-12-04T10:29:33.622Z,101512.41
2018-12-04T10:31:59.560Z,101508.45
2018-12-04T10:34:25.514Z,101510.98
2018-12-04T10:36:51.522Z,101511.09
2018-12-04T10:39:17.501Z,101511.92
2018-12-04T10:41:43.481Z,101505.81
2018-12-04T10:44:09.454Z,101511.44
2018-12-04T10:46:35.422Z,101513.73
2018-12-04T10:49:01.420Z,101522.98
2018-12-04T10:51:27.451Z,101522.98
2018-12-04T10:53:53.443Z,101520.34
2018-12-04T10:56:19.675Z,101529.09
2018-12-04T10:58:45.643Z,101526.94
2018-12-04T11:01:11.601Z,101532.55
2018-12-04T11:03:37.548Z,101534.73
2018-12-04T11:06:03.511Z,101537.84
2018-12-04T11:08:29.466Z,101543.12
2018-12-04T11:10:55.436Z,101537.50
2018-12-04T11:13:21.385Z,101541.45
2018-12-04T11:15:47.368Z,101547.08
2018-12-04T11:18:13.330Z,101555.37
2018-12-04T11:20:39.351Z,101555.72
2018-12-04T11:23:05.365Z,101557.03
2018-12-04T11:25:31.343Z,101561.00
2018-12-04T11:27:57.289Z,101567.97
2018-12-04T11:30:23.261Z,101564.47
2018-12-04T11:32:49.230Z,101567.48
2018-12-04T11:35:15.196Z,101571.78
2018-12-04T11:37:41.136Z,101567.82
2018-12-04T11:40:07.091Z,101570.46
2018-12-04T11:42:33.054Z,101574.31
2018-12-04T11:44:59.010Z,101580.91
2018-12-04T11:47:24.958Z,101586.08
2018-12-04T11:49:50.919Z,101588.23
2018-12-04T11:52:16.869Z,101585.22
2018-12-04T11:54:42.824Z,101580.08
2018-12-04T11:57:08.799Z,101579.59
2018-12-04T11:59:34.755Z,101582.58
2018-12-04T12:02:00.823Z,101586.08
2018-12-04T12:04:26.874Z,101590.16
2018-12-04T12:06:52.830Z,101592.80
2018-12-04T12:09:18.790Z,101586.53
2018-12-04T12:11:44.761Z,101584.88
2018-12-04T12:14:10.715Z,101583.21
2018-12-04T12:16:36.671Z,101587.28
2018-12-04T12:19:02.643Z,101590.64
2018-12-04T12:21:28.615Z,101591.81
2018-12-04T12:23:54.573Z,101595.32
2018-12-04T12:26:20.534Z,101591.47
2018-12-04T12:28:46.490Z,101590.98
2018-12-04T12:31:12.463Z,101588.95
2018-12-04T12:33:38.444Z,101599.05
2018-12-04T12:36:04.493Z,101599.51
2018-12-04T12:38:30.466Z,101603.47
2018-12-04T12:40:56.426Z,101603.02
2018-12-04T12:43:22.371Z,101606.37
2018-12-04T12:45:48.407Z,101614.41
2018-12-04T12:48:14.382Z,101622.93
2018-12-04T12:50:40.342Z,101628.55
2018-12-04T12:53:06.341Z,101631.91
2018-12-04T12:55:32.298Z,101633.95
2018-12-04T12:57:58.279Z,101638.41
2018-12-04T13:00:24.233Z,101638.26
2018-12-04T13:02:50.188Z,101643.08
2018-12-04T13:05:16.138Z,101638.26
2018-12-04T13:07:42.105Z,101644.41
2018-12-04T13:10:08.072Z,101644.86
2018-12-04T13:12:34.030Z,101651.84
2018-12-04T13:15:00.003Z,101655.80
2018-12-04T13:17:26.058Z,101661.45
2018-12-04T13:19:52.177Z,101662.52
2018-12-04T13:22:18.116Z,101665.04
2018-12-04T13:24:44.162Z,101665.04
2018-12-04T13:27:10.119Z,101666.36
2018-12-04T13:29:36.111Z,101669.83
2018-12-04T13:32:02.155Z,101673.80
2018-12-04T13:34:28.140Z,101675.95
2018-12-04T13:36:54.224Z,101687.00
2018-12-04T13:39:20.276Z,101682.06
2018-12-04T13:41:46.537Z,101686.02
2018-12-04T13:44:12.543Z,101695.27
2018-12-04T13:46:38.493Z,101700.09
2018-12-04T13:49:04.475Z,101693.11
2018-12-04T13:51:30.426Z,101696.24
2018-12-04T13:53:56.406Z,101702.50
2018-12-04T13:56:22.463Z,101708.13
2018-12-04T13:58:49.061Z,101717.14
2018-12-04T14:01:15.158Z,101720.98
2018-12-04T14:03:41.255Z,101720.61
2018-12-04T14:06:07.306Z,101725.30
2018-12-04T14:08:33.274Z,101725.17
2018-12-04T14:10:59.238Z,101730.83
2018-12-04T14:13:25.295Z,101728.91
2018-12-04T14:15:51.407Z,101731.06
2018-12-04T14:18:17.443Z,101737.29
2018-12-04T14:20:43.440Z,101735.88
2018-12-04T14:23:09.493Z,101746.32
2018-12-04T14:25:35.537Z,101751.48
2018-12-04T14:28:01.604Z,101753.53
2018-12-04T14:30:27.566Z,101756.99
2018-12-04T14:32:53.567Z,101763.72
2018-12-04T14:35:19.505Z,101762.88
2018-12-04T14:37:45.466Z,101766.23
2018-12-04T14:40:11.437Z,101770.83
2018-12-04T14:42:37.510Z,101766.86
2018-12-04T14:45:04.130Z,101768.53
2018-12-04T14:47:30.117Z,101766.13
2018-12-04T14:49:56.175Z,101764.91
2018-12-04T14:52:22.247Z,101768.53
2018-12-04T14:54:48.270Z,101776.94
2018-12-04T14:57:14.242Z,101785.20
2018-12-04T14:59:40.343Z,101785.58
2018-12-04T15:02:06.397Z,101785.09
2018-12-04T15:04:32.516Z,101785.44
2018-12-04T15:06:58.638Z,101785.22
2018-12-04T15:09:24.664Z,101781.26
2018-12-04T15:11:50.771Z,101783.90
2018-12-04T15:14:16.744Z,101783.75
2018-12-04T15:16:42.717Z,101792.52
2018-12-04T15:19:08.705Z,101794.06
2018-12-04T15:21:34.734Z,101805.50
2018-12-04T15:24:00.729Z,101807.77
2018-12-04T15:26:26.801Z,101816.28
2018-12-04T15:28:52.870Z,101815.69
2018-12-04T15:31:18.955Z,101819.41
2018-12-04T15:33:45.007Z,101827.92
2018-12-04T15:36:11.032Z,101833.70
2018-12-04T15:38:37.108Z,101833.80
2018-12-04T15:41:03.147Z,101848.94
2018-12-04T15:43:29.111Z,101851.47
2018-12-04T15:45:55.155Z,101850.61
2018-12-04T15:48:21.126Z,101849.29
2018-12-04T15:50:47.311Z,101846.54
2018-12-04T15:53:13.408Z,101849.07
2018-12-04T15:55:39.454Z,101852.17
2018-12-04T15:58:05.431Z,101849.77
2018-12-04T16:00:31.391Z,101855.05
2018-12-04T16:02:57.358Z,101857.23
2018-12-04T16:05:23.340Z,101862.97
2018-12-04T16:07:49.305Z,101865.16
2018-12-04T16:10:15.266Z,101869.12
2018-12-04T16:12:41.217Z,101869.57
2018-12-04T16:15:07.170Z,101872.70
2018-12-04T16:17:33.132Z,101879.30
2018-12-04T16:19:59.174Z,101886.39
2018-12-04T16:22:25.134Z,101883.41
2018-12-04T16:24:51.140Z,101888.69
2018-12-04T16:27:17.100Z,101888.80
2018-12-04T16:29:43.061Z,101895.75
2018-12-04T16:32:09.027Z,101891.33
2018-12-04T16:34:35.008Z,101897.06
2018-12-04T16:37:00.968Z,101894.56
2018-12-04T16:39:27.007Z,101901.16
2018-12-04T16:41:53.032Z,101902.48
2018-12-04T16:44:19.066Z,101909.09
2018-12-04T16:46:45.089Z,101900.09
2018-12-04T16:49:11.133Z,101907.77
2018-12-04T16:51:37.149Z,101910.03
2018-12-04T16:54:03.139Z,101898.63
2018-12-04T16:56:29.303Z,101919.27
2018-12-04T16:58:55.283Z,101909.55
2018-12-04T17:01:21.236Z,101911.25
2018-12-04T17:03:47.223Z,101911.98
2018-12-04T17:06:13.182Z,101910.66
2018-12-04T17:08:39.155Z,101916.98
2018-12-04T17:11:05.101Z,101914.00
2018-12-04T17:13:31.054Z,101903.78
2018-12-04T17:15:57.029Z,101915.08
2018-12-04T17:18:22.988Z,101909.93
2018-12-04T17:20:48.999Z,101914.34
2018-12-04T17:23:14.987Z,101916.64
2018-12-04T17:25:40.940Z,101920.95
2018-12-04T17:28:06.906Z,101925.53
2018-12-04T17:30:32.859Z,101922.03
2018-12-04T17:32:58.947Z,101931.41
2018-12-04T17:35:24.916Z,101939.33
2018-12-04T17:37:50.880Z,101937.52
2018-12-04T17:40:16.869Z,101935.72
2018-12-04T17:42:42.835Z,101944.61
2018-12-04T17:45:08.809Z,101938.36
2018-12-04T17:47:34.791Z,101945.93
2018-12-04T17:50:00.754Z,101946.03
2018-12-04T17:52:26.772Z,101948.57
2018-12-04T17:54:52.778Z,101951.45
2018-12-04T17:57:18.717Z,101951.31
2018-12-04T17:59:44.689Z,101947.36
2018-12-04T18:02:10.646Z,101956.25
2018-12-04T18:04:36.639Z,101953.95
2018-12-04T18:07:02.734Z,101946.48
2018-12-04T18:09:28.759Z,101956.22
2018-12-04T18:11:54.734Z,101958.27
2018-12-04T18:14:20.702Z,101953.72
2018-12-04T18:16:46.670Z,101952.98
2018-12-04T18:19:12.676Z,101955.97
2018-12-04T18:21:38.658Z,101958.37
2018-12-04T18:24:04.626Z,101966.29
2018-12-04T18:26:30.770Z,101968.83
2018-12-04T18:28:56.733Z,101974.34
2018-12-04T18:31:22.707Z,101976.88
2018-12-04T18:33:48.699Z,101979.98
2018-12-04T18:36:14.639Z,101979.04
2018-12-04T18:38:40.600Z,101975.08
2018-12-04T18:41:06.623Z,101973.17
2018-12-04T18:43:32.585Z,101976.99
2018-12-04T18:45:58.558Z,101984.56
2018-12-04T18:48:24.540Z,101983.00
2018-12-04T18:50:50.495Z,101996.80
2018-12-04T18:53:16.465Z,102001.23
2018-12-04T18:55:42.455Z,102002.56
2018-12-04T18:58:08.418Z,102001.23
2018-12-04T19:00:34.497Z,102003.53
2018-12-04T19:03:00.457Z,102000.06
2018-12-04T19:05:26.529Z,101996.45
2018-12-04T19:07:52.501Z,101994.29
2018-12-04T19:10:18.566Z,102001.38
2018-12-04T19:12:44.552Z,102000.89
2018-12-04T19:15:10.498Z,101999.57
2018-12-04T19:17:36.448Z,102009.06
2018-12-04T19:20:02.413Z,102012.53
2018-12-04T19:22:28.428Z,102012.05
2018-12-04T19:24:54.389Z,102015.28
2018-12-04T19:27:20.378Z,102011.45
2018-12-04T19:29:46.421Z,102010.00
2018-12-04T19:32:12.397Z,102019.86
2018-12-04T19:34:38.363Z,102019.72
2018-12-04T19:37:04.362Z,102021.28
2018-12-04T19:39:30.327Z,102024.76
2018-12-04T19:41:56.294Z,102023.92
2018-12-04T19:44:22.288Z,102032.68
2018-12-04T19:46:48.449Z,102033.90
2018-12-04T19:49:14.438Z,102036.05
2018-12-04T19:51:40.456Z,102035.22
2018-12-04T19:54:06.424Z,102043.73
2018-12-04T19:56:32.367Z,102048.52
2018-12-04T19:58:58.426Z,102048.17
2018-12-04T20:01:24.428Z,102044.56
2018-12-04T20:03:50.422Z,102043.63
2018-12-04T20:06:16.443Z,102054.05
2018-12-04T20:08:42.476Z,102056.83
2018-12-04T20:11:08.427Z,102059.92
2018-12-04T20:13:34.391Z,102054.19
2018-12-04T20:16:00.384Z,102057.28
2018-12-04T20:18:26.382Z,102064.36
2018-12-04T20:20:52.359Z,102059.92
2018-12-04T20:23:18.377Z,102064.27
2018-12-04T20:25:44.611Z,102061.23
2018-12-04T20:28:10.553Z,102071.80
2018-12-04T20:30:36.551Z,102080.20
2018-12-04T20:33:03.228Z,102082.50
2018-12-04T20:35:29.198Z,102081.28
2018-12-04T20:37:55.190Z,102086.91
2018-12-04T20:40:21.157Z,102083.81
2018-12-04T20:42:47.165Z,102090.42
2018-12-04T20:45:13.187Z,102095.91
2018-12-04T20:47:39.152Z,102097.22
2018-12-04T20:50:06.179Z,102095.55
2018-12-04T20:52:32.147Z,102093.75
2018-12-04T20:54:58.146Z,102092.08
2018-12-04T20:57:24.116Z,102097.84
2018-12-04T20:59:50.095Z,102103.58
2018-12-04T21:02:16.077Z,102099.16
2018-12-04T21:04:42.069Z,102097.94
2018-12-04T21:07:08.073Z,102099.84
2018-12-04T21:09:34.096Z,102106.70
2018-12-04T21:12:00.233Z,102102.73
2018-12-04T21:14:26.274Z,102104.54
2018-12-04T21:16:52.229Z,102103.80
2018-12-04T21:19:18.202Z,102104.64
2018-12-04T21:21:44.174Z,102101.65
2018-12-04T21:24:10.155Z,102100.81
2018-12-04T21:26:37.008Z,102096.60
2018-12-04T21:29:03.147Z,102100.08
2018-12-04T21:31:29.128Z,102102.23
2018-12-04T21:33:55.097Z,102108.00
2018-12-04T21:36:21.172Z,102101.02
2018-12-04T21:38:47.195Z,102098.52
2018-12-04T21:41:13.156Z,102095.16
2018-12-04T21:43:39.131Z,102093.83
2018-12-04T21:46:05.118Z,102093.97
2018-12-04T21:48:31.076Z,102090.84
2018-12-04T21:50:57.313Z,102089.62
2018-12-04T21:53:23.341Z,102087.95
2018-12-04T21:55:49.316Z,102090.59
2018-12-04T21:58:15.285Z,102088.44
2018-12-04T22:00:41.273Z,102092.75
2018-12-04T22:03:07.247Z,102101.98
2018-12-04T22:05:33.219Z,102103.78
2018-12-04T22:07:59.172Z,102107.84
2018-12-04T22:10:25.126Z,102108.69
2018-12-04T22:12:51.175Z,102112.19
2018-12-04T22:15:17.149Z,102112.30
2018-12-04T22:17:43.119Z,102114.93
2018-12-04T22:20:09.085Z,102113.86
2018-12-04T22:22:35.093Z,102112.70
2018-12-04T22:25:01.068Z,102116.07
2018-12-04T22:27:27.022Z,102118.33
2018-12-04T22:29:52.986Z,102118.23
2018-12-04T22:32:18.966Z,102113.88
2018-12-04T22:34:45.018Z,102117.00
2018-12-04T22:37:11.002Z,102118.81
2018-12-04T22:39:36.962Z,102115.33
2018-12-04T22:42:02.957Z,102116.66
2018-12-04T22:44:28.899Z,102109.31
2018-12-04T22:46:54.872Z,102112.31
2018-12-04T22:49:20.869Z,102112.80
2018-12-04T22:51:47.204Z,102107.62
2018-12-04T22:54:13.194Z,102113.61
2018-12-04T22:56:39.383Z,102115.91
2018-12-04T22:59:05.333Z,102114.93
2018-12-04T23:01:31.324Z,102119.14
2018-12-04T23:03:57.281Z,102115.53
2018-12-04T23:06:23.276Z,102115.67
2018-12-04T23:08:49.226Z,102113.52
2018-12-04T23:11:15.189Z,102113.03
2018-12-04T23:13:41.143Z,102120.56
2018-12-04T23:16:07.139Z,102111.33
2018-12-04T23:18:33.108Z,102104.73
2018-12-04T23:20:59.066Z,102102.95
2018-12-04T23:23:25.046Z,102111.33
2018-12-04T23:25:51.008Z,102118.05
2018-12-04T23:28:16.986Z,102115.91
2018-12-04T23:30:42.957Z,102120.31
2018-12-04T23:33:08.931Z,102122.11
2018-12-04T23:35:34.970Z,102119.13
2018-12-04T23:38:00.952Z,102114.91
2018-12-04T23:40:26.903Z,102117.42
2018-12-04T23:42:52.893Z,102111.79
2018-12-04T23:45:18.869Z,102113.94
2018-12-04T23:47:44.844Z,102116.58
2018-12-04T23:50:11.074Z,102114.53
2018-12-04T23:52:37.045Z,102116.81
2018-12-04T23:55:03.012Z,102110.22
2018-12-04T23:57:28.960Z,102108.77
2018-12-04T23:59:54.911Z,102102.30
